Terminal Aerodrome Forecast
Issued by NWS

Home | Current Version | Previous Version | Text Only | Print | Product List | Glossary On
Versions: 1 2 3 4 5 6 7 8 9 10 11 12
433
FTUS45 KPIH 101127
TAFSUN
TAF
KSUN 101127Z 1012/1112 32011KT P6SM FEW180
     FM102000 VRB04KT P6SM SCT150
     FM110300 31011KT P6SM BKN120
      AMD LTD TO CLD VIS AND WIND TIL 101400=

USA.gov is the U.S. government's official web portal to all federal, state and local government web resources and services.